KLFT/LFT METAR and TAF weather

Enter ICAO airport designator
Station Type Date Time Source
KLFT METAR 2020/03/31 08:53 UTC NOAA

KLFT 310853Z 22010G18KT 10SM OVC015 24/21 A2982 RMK AO2 SLP097 60000 T02440211 56021


Station Type Date Time Source
KLFT Decoded METAR 2020/03/31 08:53 UTC NOAA

LAFAYETTE REGIONAL AIRPORT, LA, United States (KLFT) 30-12N 092-00W 11M
Mar 31, 2020 - 04:53 AM EDT / 2020.03.31 0853 UTC
Wind: from the SW (220 degrees) at 12 MPH (10 KT) gusting to 21 MPH (18 KT):0
Visibility: 10 mile(s):0
Sky conditions: overcast
Temperature: 75.9 F (24.4 C)
Dew Point: 70.0 F (21.1 C)
Relative Humidity: 81%
Pressure (altimeter): 29.82 in. Hg (1009 hPa)
Pressure tendency: 0.06 inches (2.1 hPa) lower than three hours ago
ob: KLFT 310853Z 22010G18KT 10SM OVC015 24/21 A2982 RMK AO2 SLP097 60000 T02440211 56021
cycle: 9

Station Type Date Time Source
KLFT TAF 2020/03/31 06:22 UTC NOAA

TAF KLFT 310520Z 3106/0106 17009G17KT P6SM VCSH BKN013 BKN024 OVC045
TEMPO 3106/3110 SCT013 SCT018 OVC021
FM311000 23010KT P6SM VCSH BKN010 OVC022
TEMPO 3110/3114 5SM SHRA BR BKN017 OVC025
FM311400 29012G18KT P6SM VCSH BKN025
FM311600 30015G20KT P6SM SCT025

Example: see airport list